sensor_id;sensor_type;location;lat;lon;timestamp;P1;durP1;ratioP1;P2;durP2;ratioP2
51451;SDS011;37521;52.020;-1.740;2022-07-06T00:01:38;0.65;;;0.52;;
51451;SDS011;37521;52.020;-1.740;2022-07-06T00:04:06;0.35;;;0.35;;
51451;SDS011;37521;52.020;-1.740;2022-07-06T00:06:36;0.50;;;0.50;;
51451;SDS011;37521;52.020;-1.740;2022-07-06T00:09:05;2.08;;;0.77;;
51451;SDS011;37521;52.020;-1.740;2022-07-06T00:11:33;0.38;;;0.38;;
51451;SDS011;37521;52.020;-1.740;2022-07-06T00:14:02;0.55;;;0.40;;
51451;SDS011;37521;52.020;-1.740;2022-07-06T00:16:30;0.65;;;0.43;;
51451;SDS011;37521;52.020;-1.740;2022-07-06T00:18:59;0.85;;;0.40;;
51451;SDS011;37521;52.020;-1.740;2022-07-06T00:21:27;1.27;;;0.60;;
51451;SDS011;37521;52.020;-1.740;2022-07-06T00:23:57;0.50;;;0.35;;
51451;SDS011;37521;52.020;-1.740;2022-07-06T00:26:26;0.82;;;0.55;;
51451;SDS011;37521;52.020;-1.740;2022-07-06T00:28:54;0.15;;;0.15;;
51451;SDS011;37521;52.020;-1.740;2022-07-06T00:31:22;0.47;;;0.47;;
51451;SDS011;37521;52.020;-1.740;2022-07-06T00:33:51;0.50;;;0.50;;
51451;SDS011;37521;52.020;-1.740;2022-07-06T00:36:19;1.63;;;0.75;;
51451;SDS011;37521;52.020;-1.740;2022-07-06T00:38:47;0.60;;;0.47;;
51451;SDS011;37521;52.020;-1.740;2022-07-06T00:41:17;1.30;;;0.47;;
51451;SDS011;37521;52.020;-1.740;2022-07-06T00:43:46;1.30;;;0.52;;
51451;SDS011;37521;52.020;-1.740;2022-07-06T00:46:16;1.85;;;0.43;;
51451;SDS011;37521;52.020;-1.740;2022-07-06T00:48:44;1.67;;;0.63;;
51451;SDS011;37521;52.020;-1.740;2022-07-06T00:51:13;0.35;;;0.35;;
51451;SDS011;37521;52.020;-1.740;2022-07-06T00:53:41;0.30;;;0.30;;
51451;SDS011;37521;52.020;-1.740;2022-07-06T00:56:10;0.60;;;0.60;;
51451;SDS011;37521;52.020;-1.740;2022-07-06T00:58:40;2.85;;;0.60;;
51451;SDS011;37521;52.020;-1.740;2022-07-06T01:01:10;0.88;;;0.50;;
51451;SDS011;37521;52.020;-1.740;2022-07-06T01:03:38;0.98;;;0.43;;
51451;SDS011;37521;52.020;-1.740;2022-07-06T01:06:07;1.63;;;0.50;;
51451;SDS011;37521;52.020;-1.740;2022-07-06T01:08:35;1.25;;;0.88;;
51451;SDS011;37521;52.020;-1.740;2022-07-06T01:11:05;1.00;;;0.40;;
51451;SDS011;37521;52.020;-1.740;2022-07-06T01:13:34;0.55;;;0.50;;
51451;SDS011;37521;52.020;-1.740;2022-07-06T01:16:04;0.55;;;0.52;;
51451;SDS011;37521;52.020;-1.740;2022-07-06T01:18:32;1.50;;;0.90;;
51451;SDS011;37521;52.020;-1.740;2022-07-06T01:21:09;1.38;;;0.65;;
51451;SDS011;37521;52.020;-1.740;2022-07-06T01:23:40;0.60;;;0.50;;
51451;SDS011;37521;52.020;-1.740;2022-07-06T01:26:11;1.02;;;0.47;;
51451;SDS011;37521;52.020;-1.740;2022-07-06T01:28:40;0.70;;;0.70;;
51451;SDS011;37521;52.020;-1.740;2022-07-06T01:31:15;0.95;;;0.70;;
51451;SDS011;37521;52.020;-1.740;2022-07-06T01:33:45;0.30;;;0.30;;
51451;SDS011;37521;52.020;-1.740;2022-07-06T01:36:15;0.95;;;0.60;;
51451;SDS011;37521;52.020;-1.740;2022-07-06T01:38:46;0.60;;;0.60;;
51451;SDS011;37521;52.020;-1.740;2022-07-06T01:41:15;0.50;;;0.50;;
51451;SDS011;37521;52.020;-1.740;2022-07-06T01:43:45;1.55;;;0.73;;
51451;SDS011;37521;52.020;-1.740;2022-07-06T01:46:14;1.67;;;0.75;;
51451;SDS011;37521;52.020;-1.740;2022-07-06T01:48:43;1.45;;;0.30;;
51451;SDS011;37521;52.020;-1.740;2022-07-06T01:51:12;0.57;;;0.50;;
51451;SDS011;37521;52.020;-1.740;2022-07-06T01:53:44;0.77;;;0.77;;
51451;SDS011;37521;52.020;-1.740;2022-07-06T01:56:15;0.90;;;0.43;;
51451;SDS011;37521;52.020;-1.740;2022-07-06T01:58:45;0.40;;;0.40;;
51451;SDS011;37521;52.020;-1.740;2022-07-06T02:01:15;0.40;;;0.40;;
51451;SDS011;37521;52.020;-1.740;2022-07-06T02:03:44;1.42;;;0.65;;
51451;SDS011;37521;52.020;-1.740;2022-07-06T02:06:15;0.82;;;0.65;;
51451;SDS011;37521;52.020;-1.740;2022-07-06T02:08:46;0.40;;;0.40;;
51451;SDS011;37521;52.020;-1.740;2022-07-06T02:11:15;0.70;;;0.32;;
51451;SDS011;37521;52.020;-1.740;2022-07-06T02:13:44;0.52;;;0.38;;
51451;SDS011;37521;52.020;-1.740;2022-07-06T02:16:12;1.58;;;0.45;;
51451;SDS011;37521;52.020;-1.740;2022-07-06T02:18:41;0.25;;;0.25;;
51451;SDS011;37521;52.020;-1.740;2022-07-06T02:21:09;1.33;;;0.60;;
51451;SDS011;37521;52.020;-1.740;2022-07-06T02:23:39;0.32;;;0.32;;
51451;SDS011;37521;52.020;-1.740;2022-07-06T02:26:07;0.40;;;0.40;;
51451;SDS011;37521;52.020;-1.740;2022-07-06T02:28:36;0.43;;;0.43;;
51451;SDS011;37521;52.020;-1.740;2022-07-06T02:31:05;0.43;;;0.43;;
51451;SDS011;37521;52.020;-1.740;2022-07-06T02:33:33;0.50;;;0.50;;
51451;SDS011;37521;52.020;-1.740;2022-07-06T02:36:02;1.00;;;0.50;;
51451;SDS011;37521;52.020;-1.740;2022-07-06T02:38:30;0.30;;;0.30;;
51451;SDS011;37521;52.020;-1.740;2022-07-06T02:41:01;0.60;;;0.60;;
51451;SDS011;37521;52.020;-1.740;2022-07-06T02:43:29;0.60;;;0.50;;
51451;SDS011;37521;52.020;-1.740;2022-07-06T02:45:57;0.50;;;0.50;;
51451;SDS011;37521;52.020;-1.740;2022-07-06T02:48:27;0.40;;;0.40;;
51451;SDS011;37521;52.020;-1.740;2022-07-06T02:50:56;0.73;;;0.55;;
51451;SDS011;37521;52.020;-1.740;2022-07-06T02:53:25;0.50;;;0.50;;
51451;SDS011;37521;52.020;-1.740;2022-07-06T02:55:55;0.32;;;0.28;;
51451;SDS011;37521;52.020;-1.740;2022-07-06T02:58:24;1.00;;;0.90;;
51451;SDS011;37521;52.020;-1.740;2022-07-06T03:00:53;0.47;;;0.47;;
51451;SDS011;37521;52.020;-1.740;2022-07-06T03:03:22;1.00;;;0.60;;
51451;SDS011;37521;52.020;-1.740;2022-07-06T03:05:50;0.73;;;0.60;;
51451;SDS011;37521;52.020;-1.740;2022-07-06T03:08:19;0.47;;;0.40;;
51451;SDS011;37521;52.020;-1.740;2022-07-06T03:10:48;1.08;;;0.90;;
51451;SDS011;37521;52.020;-1.740;2022-07-06T03:13:17;1.25;;;0.57;;
51451;SDS011;37521;52.020;-1.740;2022-07-06T03:15:47;1.25;;;0.93;;
51451;SDS011;37521;52.020;-1.740;2022-07-06T03:18:16;0.73;;;0.52;;
51451;SDS011;37521;52.020;-1.740;2022-07-06T03:20:44;1.15;;;0.98;;
51451;SDS011;37521;52.020;-1.740;2022-07-06T03:23:15;1.02;;;0.77;;
51451;SDS011;37521;52.020;-1.740;2022-07-06T03:25:44;0.82;;;0.77;;
51451;SDS011;37521;52.020;-1.740;2022-07-06T03:28:13;1.23;;;1.10;;
51451;SDS011;37521;52.020;-1.740;2022-07-06T03:30:42;0.75;;;0.70;;
51451;SDS011;37521;52.020;-1.740;2022-07-06T03:33:12;0.90;;;0.60;;
51451;SDS011;37521;52.020;-1.740;2022-07-06T03:35:41;1.35;;;0.80;;
51451;SDS011;37521;52.020;-1.740;2022-07-06T03:38:11;0.70;;;0.70;;
51451;SDS011;37521;52.020;-1.740;2022-07-06T03:40:41;1.55;;;0.70;;
51451;SDS011;37521;52.020;-1.740;2022-07-06T03:43:10;1.77;;;0.95;;
51451;SDS011;37521;52.020;-1.740;2022-07-06T03:45:38;0.60;;;0.60;;
51451;SDS011;37521;52.020;-1.740;2022-07-06T03:48:07;0.98;;;0.98;;
51451;SDS011;37521;52.020;-1.740;2022-07-06T03:50:40;0.73;;;0.70;;
51451;SDS011;37521;52.020;-1.740;2022-07-06T03:53:09;0.65;;;0.65;;
51451;SDS011;37521;52.020;-1.740;2022-07-06T03:55:38;0.85;;;0.85;;
51451;SDS011;37521;52.020;-1.740;2022-07-06T03:58:08;1.00;;;0.65;;
51451;SDS011;37521;52.020;-1.740;2022-07-06T04:00:39;0.70;;;0.50;;
51451;SDS011;37521;52.020;-1.740;2022-07-06T04:03:14;0.60;;;0.60;;
51451;SDS011;37521;52.020;-1.740;2022-07-06T04:05:48;0.75;;;0.75;;
51451;SDS011;37521;52.020;-1.740;2022-07-06T04:08:16;0.90;;;0.70;;
51451;SDS011;37521;52.020;-1.740;2022-07-06T04:10:52;0.80;;;0.68;;
51451;SDS011;37521;52.020;-1.740;2022-07-06T04:13:21;0.52;;;0.52;;
51451;SDS011;37521;52.020;-1.740;2022-07-06T04:15:51;1.10;;;0.80;;
51451;SDS011;37521;52.020;-1.740;2022-07-06T04:18:19;0.90;;;0.80;;
51451;SDS011;37521;52.020;-1.740;2022-07-06T04:20:53;0.80;;;0.80;;
51451;SDS011;37521;52.020;-1.740;2022-07-06T04:23:25;0.80;;;0.80;;
51451;SDS011;37521;52.020;-1.740;2022-07-06T04:25:54;0.68;;;0.68;;
51451;SDS011;37521;52.020;-1.740;2022-07-06T04:28:24;1.08;;;1.02;;
51451;SDS011;37521;52.020;-1.740;2022-07-06T04:30:53;0.90;;;0.90;;
51451;SDS011;37521;52.020;-1.740;2022-07-06T04:33:24;0.90;;;0.90;;
51451;SDS011;37521;52.020;-1.740;2022-07-06T04:35:54;0.60;;;0.60;;
51451;SDS011;37521;52.020;-1.740;2022-07-06T04:38:28;1.15;;;0.73;;
51451;SDS011;37521;52.020;-1.740;2022-07-06T04:41:02;0.50;;;0.50;;
51451;SDS011;37521;52.020;-1.740;2022-07-06T04:43:31;1.02;;;0.90;;
51451;SDS011;37521;52.020;-1.740;2022-07-06T04:45:59;0.75;;;0.75;;
51451;SDS011;37521;52.020;-1.740;2022-07-06T04:48:30;0.60;;;0.60;;
51451;SDS011;37521;52.020;-1.740;2022-07-06T04:51:05;0.63;;;0.63;;
51451;SDS011;37521;52.020;-1.740;2022-07-06T04:53:34;1.35;;;0.90;;
51451;SDS011;37521;52.020;-1.740;2022-07-06T04:56:03;0.82;;;0.80;;
51451;SDS011;37521;52.020;-1.740;2022-07-06T04:58:35;1.92;;;0.80;;
51451;SDS011;37521;52.020;-1.740;2022-07-06T05:01:05;0.88;;;0.82;;
51451;SDS011;37521;52.020;-1.740;2022-07-06T05:03:34;1.33;;;0.98;;
51451;SDS011;37521;52.020;-1.740;2022-07-06T05:06:10;0.90;;;0.90;;
51451;SDS011;37521;52.020;-1.740;2022-07-06T05:08:38;0.90;;;0.90;;
51451;SDS011;37521;52.020;-1.740;2022-07-06T05:11:07;1.30;;;1.20;;
51451;SDS011;37521;52.020;-1.740;2022-07-06T05:13:35;1.00;;;0.82;;
51451;SDS011;37521;52.020;-1.740;2022-07-06T05:16:04;0.77;;;0.70;;
51451;SDS011;37521;52.020;-1.740;2022-07-06T05:18:33;1.30;;;0.85;;
51451;SDS011;37521;52.020;-1.740;2022-07-06T05:21:03;0.90;;;0.90;;
51451;SDS011;37521;52.020;-1.740;2022-07-06T05:23:33;1.38;;;0.50;;
51451;SDS011;37521;52.020;-1.740;2022-07-06T05:26:03;1.05;;;0.98;;
51451;SDS011;37521;52.020;-1.740;2022-07-06T05:28:32;0.82;;;0.77;;
51451;SDS011;37521;52.020;-1.740;2022-07-06T05:31:05;0.88;;;0.88;;
51451;SDS011;37521;52.020;-1.740;2022-07-06T05:33:34;0.88;;;0.85;;
51451;SDS011;37521;52.020;-1.740;2022-07-06T05:36:03;0.60;;;0.60;;
51451;SDS011;37521;52.020;-1.740;2022-07-06T05:38:34;1.40;;;1.13;;
51451;SDS011;37521;52.020;-1.740;2022-07-06T05:41:02;1.02;;;0.90;;
51451;SDS011;37521;52.020;-1.740;2022-07-06T05:43:32;0.68;;;0.68;;
51451;SDS011;37521;52.020;-1.740;2022-07-06T05:46:04;0.80;;;0.80;;
51451;SDS011;37521;52.020;-1.740;2022-07-06T05:48:35;1.17;;;0.85;;
51451;SDS011;37521;52.020;-1.740;2022-07-06T05:51:21;0.80;;;0.80;;
51451;SDS011;37521;52.020;-1.740;2022-07-06T05:53:52;0.82;;;0.82;;
51451;SDS011;37521;52.020;-1.740;2022-07-06T05:56:21;3.30;;;1.20;;
51451;SDS011;37521;52.020;-1.740;2022-07-06T05:58:51;0.93;;;0.93;;
51451;SDS011;37521;52.020;-1.740;2022-07-06T06:01:19;0.88;;;0.80;;
51451;SDS011;37521;52.020;-1.740;2022-07-06T06:03:59;0.95;;;0.85;;
51451;SDS011;37521;52.020;-1.740;2022-07-06T06:06:27;1.35;;;0.80;;
51451;SDS011;37521;52.020;-1.740;2022-07-06T06:08:59;1.30;;;1.02;;
51451;SDS011;37521;52.020;-1.740;2022-07-06T06:11:28;0.85;;;0.82;;
51451;SDS011;37521;52.020;-1.740;2022-07-06T06:13:56;1.83;;;1.00;;
51451;SDS011;37521;52.020;-1.740;2022-07-06T06:16:24;3.25;;;1.40;;
51451;SDS011;37521;52.020;-1.740;2022-07-06T06:18:54;0.90;;;0.70;;
51451;SDS011;37521;52.020;-1.740;2022-07-06T06:21:22;0.95;;;0.95;;
51451;SDS011;37521;52.020;-1.740;2022-07-06T06:23:51;4.15;;;0.80;;
51451;SDS011;37521;52.020;-1.740;2022-07-06T06:26:21;0.77;;;0.77;;
51451;SDS011;37521;52.020;-1.740;2022-07-06T06:28:49;0.73;;;0.73;;
51451;SDS011;37521;52.020;-1.740;2022-07-06T06:31:17;1.48;;;0.73;;
51451;SDS011;37521;52.020;-1.740;2022-07-06T06:33:46;0.63;;;0.63;;
51451;SDS011;37521;52.020;-1.740;2022-07-06T06:36:14;3.20;;;0.80;;
51451;SDS011;37521;52.020;-1.740;2022-07-06T06:38:43;0.60;;;0.60;;
51451;SDS011;37521;52.020;-1.740;2022-07-06T06:41:12;0.95;;;0.63;;
51451;SDS011;37521;52.020;-1.740;2022-07-06T06:43:42;0.50;;;0.50;;
51451;SDS011;37521;52.020;-1.740;2022-07-06T06:46:13;0.93;;;0.45;;
51451;SDS011;37521;52.020;-1.740;2022-07-06T06:48:41;1.00;;;0.90;;
51451;SDS011;37521;52.020;-1.740;2022-07-06T06:51:10;0.80;;;0.80;;
51451;SDS011;37521;52.020;-1.740;2022-07-06T06:53:38;1.27;;;0.85;;
51451;SDS011;37521;52.020;-1.740;2022-07-06T06:56:06;0.60;;;0.60;;
51451;SDS011;37521;52.020;-1.740;2022-07-06T06:58:36;0.65;;;0.65;;
51451;SDS011;37521;52.020;-1.740;2022-07-06T07:01:25;1.08;;;0.80;;
51451;SDS011;37521;52.020;-1.740;2022-07-06T07:03:54;1.27;;;0.57;;
51451;SDS011;37521;52.020;-1.740;2022-07-06T07:06:22;1.45;;;0.95;;
51451;SDS011;37521;52.020;-1.740;2022-07-06T07:08:50;1.00;;;0.90;;
51451;SDS011;37521;52.020;-1.740;2022-07-06T07:11:19;0.75;;;0.68;;
51451;SDS011;37521;52.020;-1.740;2022-07-06T07:13:48;1.02;;;0.85;;
51451;SDS011;37521;52.020;-1.740;2022-07-06T07:16:16;2.50;;;0.70;;
51451;SDS011;37521;52.020;-1.740;2022-07-06T07:18:46;1.00;;;0.90;;
51451;SDS011;37521;52.020;-1.740;2022-07-06T07:21:14;2.17;;;0.90;;
51451;SDS011;37521;52.020;-1.740;2022-07-06T07:23:42;1.02;;;0.93;;
51451;SDS011;37521;52.020;-1.740;2022-07-06T07:26:11;1.30;;;0.88;;
51451;SDS011;37521;52.020;-1.740;2022-07-06T07:28:39;1.25;;;0.90;;
51451;SDS011;37521;52.020;-1.740;2022-07-06T07:31:07;1.58;;;1.00;;
51451;SDS011;37521;52.020;-1.740;2022-07-06T07:33:36;1.65;;;0.82;;
51451;SDS011;37521;52.020;-1.740;2022-07-06T07:36:06;1.65;;;1.05;;
51451;SDS011;37521;52.020;-1.740;2022-07-06T07:38:34;1.20;;;0.93;;
51451;SDS011;37521;52.020;-1.740;2022-07-06T07:41:03;1.88;;;0.82;;
51451;SDS011;37521;52.020;-1.740;2022-07-06T07:43:32;0.80;;;0.77;;
51451;SDS011;37521;52.020;-1.740;2022-07-06T07:46:00;0.60;;;0.60;;
51451;SDS011;37521;52.020;-1.740;2022-07-06T07:48:30;1.23;;;1.05;;
51451;SDS011;37521;52.020;-1.740;2022-07-06T07:50:58;0.80;;;0.80;;
51451;SDS011;37521;52.020;-1.740;2022-07-06T07:53:28;0.68;;;0.60;;
51451;SDS011;37521;52.020;-1.740;2022-07-06T07:55:56;0.90;;;0.68;;
51451;SDS011;37521;52.020;-1.740;2022-07-06T07:58:25;0.88;;;0.80;;
51451;SDS011;37521;52.020;-1.740;2022-07-06T08:00:54;0.68;;;0.60;;
51451;SDS011;37521;52.020;-1.740;2022-07-06T08:03:23;0.77;;;0.77;;
51451;SDS011;37521;52.020;-1.740;2022-07-06T08:05:51;2.15;;;1.10;;
51451;SDS011;37521;52.020;-1.740;2022-07-06T08:08:20;1.55;;;0.82;;
51451;SDS011;37521;52.020;-1.740;2022-07-06T08:10:50;1.58;;;0.73;;
51451;SDS011;37521;52.020;-1.740;2022-07-06T08:13:39;0.73;;;0.73;;
51451;SDS011;37521;52.020;-1.740;2022-07-06T08:16:07;1.05;;;0.95;;
51451;SDS011;37521;52.020;-1.740;2022-07-06T08:18:36;0.80;;;0.75;;
51451;SDS011;37521;52.020;-1.740;2022-07-06T08:21:05;2.97;;;0.85;;
51451;SDS011;37521;52.020;-1.740;2022-07-06T08:23:52;0.80;;;0.63;;
51451;SDS011;37521;52.020;-1.740;2022-07-06T08:26:22;0.70;;;0.70;;
51451;SDS011;37521;52.020;-1.740;2022-07-06T08:28:51;0.98;;;0.75;;
51451;SDS011;37521;52.020;-1.740;2022-07-06T08:31:19;1.35;;;0.95;;
51451;SDS011;37521;52.020;-1.740;2022-07-06T08:34:08;2.40;;;0.70;;
51451;SDS011;37521;52.020;-1.740;2022-07-06T08:36:36;0.88;;;0.82;;
51451;SDS011;37521;52.020;-1.740;2022-07-06T08:39:04;0.82;;;0.82;;
51451;SDS011;37521;52.020;-1.740;2022-07-06T08:41:35;0.90;;;0.82;;
51451;SDS011;37521;52.020;-1.740;2022-07-06T08:44:06;1.02;;;0.90;;
51451;SDS011;37521;52.020;-1.740;2022-07-06T08:46:35;1.05;;;1.00;;
51451;SDS011;37521;52.020;-1.740;2022-07-06T08:49:06;0.82;;;0.80;;
51451;SDS011;37521;52.020;-1.740;2022-07-06T08:51:35;0.98;;;0.93;;
51451;SDS011;37521;52.020;-1.740;2022-07-06T08:54:04;0.63;;;0.60;;
51451;SDS011;37521;52.020;-1.740;2022-07-06T08:56:33;0.95;;;0.88;;
51451;SDS011;37521;52.020;-1.740;2022-07-06T08:59:03;0.50;;;0.50;;
51451;SDS011;37521;52.020;-1.740;2022-07-06T09:01:34;1.63;;;1.35;;
51451;SDS011;37521;52.020;-1.740;2022-07-06T09:04:04;1.05;;;1.00;;
51451;SDS011;37521;52.020;-1.740;2022-07-06T09:06:35;1.35;;;1.08;;
51451;SDS011;37521;52.020;-1.740;2022-07-06T09:09:04;0.93;;;0.80;;
51451;SDS011;37521;52.020;-1.740;2022-07-06T09:11:35;3.25;;;1.50;;
51451;SDS011;37521;52.020;-1.740;2022-07-06T09:14:04;0.60;;;0.60;;
51451;SDS011;37521;52.020;-1.740;2022-07-06T09:16:32;1.02;;;0.70;;
51451;SDS011;37521;52.020;-1.740;2022-07-06T09:19:04;0.88;;;0.85;;
51451;SDS011;37521;52.020;-1.740;2022-07-06T09:21:33;0.70;;;0.70;;
51451;SDS011;37521;52.020;-1.740;2022-07-06T09:24:05;1.27;;;0.70;;
51451;SDS011;37521;52.020;-1.740;2022-07-06T09:26:37;0.95;;;0.90;;
51451;SDS011;37521;52.020;-1.740;2022-07-06T09:29:06;0.70;;;0.70;;
51451;SDS011;37521;52.020;-1.740;2022-07-06T09:31:35;1.17;;;0.98;;
51451;SDS011;37521;52.020;-1.740;2022-07-06T09:34:04;0.63;;;0.63;;
51451;SDS011;37521;52.020;-1.740;2022-07-06T09:36:39;1.38;;;0.90;;
51451;SDS011;37521;52.020;-1.740;2022-07-06T09:41:59;0.63;;;0.63;;
51451;SDS011;37521;52.020;-1.740;2022-07-06T09:44:30;0.30;;;0.30;;
51451;SDS011;37521;52.020;-1.740;2022-07-06T09:47:00;2.30;;;0.50;;
51451;SDS011;37521;52.020;-1.740;2022-07-06T09:49:31;0.70;;;0.38;;
51451;SDS011;37521;52.020;-1.740;2022-07-06T09:52:00;0.98;;;0.65;;
51451;SDS011;37521;52.020;-1.740;2022-07-06T09:54:30;1.55;;;0.70;;
51451;SDS011;37521;52.020;-1.740;2022-07-06T09:57:01;1.08;;;0.60;;
51451;SDS011;37521;52.020;-1.740;2022-07-06T09:59:35;0.65;;;0.65;;
51451;SDS011;37521;52.020;-1.740;2022-07-06T10:02:04;1.83;;;1.13;;
51451;SDS011;37521;52.020;-1.740;2022-07-06T10:04:34;4.32;;;1.75;;
51451;SDS011;37521;52.020;-1.740;2022-07-06T10:07:02;4.47;;;1.90;;
51451;SDS011;37521;52.020;-1.740;2022-07-06T10:09:32;5.50;;;2.03;;
51451;SDS011;37521;52.020;-1.740;2022-07-06T10:12:03;3.75;;;1.73;;
51451;SDS011;37521;52.020;-1.740;2022-07-06T10:14:38;4.65;;;2.00;;
51451;SDS011;37521;52.020;-1.740;2022-07-06T10:17:14;2.17;;;0.90;;
51451;SDS011;37521;52.020;-1.740;2022-07-06T10:19:43;0.98;;;0.85;;
51451;SDS011;37521;52.020;-1.740;2022-07-06T10:22:13;0.55;;;0.55;;
51451;SDS011;37521;52.020;-1.740;2022-07-06T10:24:44;1.83;;;0.40;;
51451;SDS011;37521;52.020;-1.740;2022-07-06T10:27:16;0.35;;;0.35;;
51451;SDS011;37521;52.020;-1.740;2022-07-06T10:29:44;2.00;;;0.50;;
51451;SDS011;37521;52.020;-1.740;2022-07-06T10:32:16;0.40;;;0.40;;
51451;SDS011;37521;52.020;-1.740;2022-07-06T10:34:46;0.15;;;0.15;;
51451;SDS011;37521;52.020;-1.740;2022-07-06T10:37:21;0.40;;;0.35;;
51451;SDS011;37521;52.020;-1.740;2022-07-06T10:39:51;0.20;;;0.20;;
51451;SDS011;37521;52.020;-1.740;2022-07-06T10:42:40;0.32;;;0.32;;
51451;SDS011;37521;52.020;-1.740;2022-07-06T10:45:10;0.30;;;0.30;;
51451;SDS011;37521;52.020;-1.740;2022-07-06T10:47:40;0.47;;;0.47;;
51451;SDS011;37521;52.020;-1.740;2022-07-06T10:50:08;1.05;;;0.20;;
51451;SDS011;37521;52.020;-1.740;2022-07-06T10:55:28;0.52;;;0.38;;
51451;SDS011;37521;52.020;-1.740;2022-07-06T10:57:59;0.30;;;0.30;;
51451;SDS011;37521;52.020;-1.740;2022-07-06T11:00:42;0.20;;;0.20;;
51451;SDS011;37521;52.020;-1.740;2022-07-06T11:06:07;0.30;;;0.30;;
51451;SDS011;37521;52.020;-1.740;2022-07-06T11:11:26;0.65;;;0.30;;
51451;SDS011;37521;52.020;-1.740;2022-07-06T11:14:09;1.48;;;0.30;;
51451;SDS011;37521;52.020;-1.740;2022-07-06T11:19:27;0.28;;;0.13;;
51451;SDS011;37521;52.020;-1.740;2022-07-06T11:21:56;0.50;;;0.17;;
51451;SDS011;37521;52.020;-1.740;2022-07-06T11:24:27;1.83;;;0.40;;
51451;SDS011;37521;52.020;-1.740;2022-07-06T11:26:57;0.17;;;0.17;;
51451;SDS011;37521;52.020;-1.740;2022-07-06T11:29:29;0.13;;;0.13;;
51451;SDS011;37521;52.020;-1.740;2022-07-06T11:31:59;0.10;;;0.10;;
51451;SDS011;37521;52.020;-1.740;2022-07-06T11:34:31;2.60;;;0.20;;
51451;SDS011;37521;52.020;-1.740;2022-07-06T11:37:02;0.17;;;0.17;;
51451;SDS011;37521;52.020;-1.740;2022-07-06T11:39:34;0.10;;;0.10;;
51451;SDS011;37521;52.020;-1.740;2022-07-06T11:42:06;0.00;;;0.00;;
51451;SDS011;37521;52.020;-1.740;2022-07-06T11:44:37;0.47;;;0.00;;
51451;SDS011;37521;52.020;-1.740;2022-07-06T11:47:07;0.10;;;0.00;;
51451;SDS011;37521;52.020;-1.740;2022-07-06T11:49:38;0.00;;;0.00;;
51451;SDS011;37521;52.020;-1.740;2022-07-06T11:52:08;0.08;;;0.08;;
51451;SDS011;37521;52.020;-1.740;2022-07-06T11:54:38;0.43;;;0.22;;
51451;SDS011;37521;52.020;-1.740;2022-07-06T11:57:07;0.10;;;0.10;;
51451;SDS011;37521;52.020;-1.740;2022-07-06T11:59:39;0.15;;;0.03;;
51451;SDS011;37521;52.020;-1.740;2022-07-06T12:02:09;0.00;;;0.00;;
51451;SDS011;37521;52.020;-1.740;2022-07-06T12:04:39;0.47;;;0.10;;
51451;SDS011;37521;52.020;-1.740;2022-07-06T12:07:10;0.00;;;0.00;;
51451;SDS011;37521;52.020;-1.740;2022-07-06T12:09:40;0.10;;;0.10;;
51451;SDS011;37521;52.020;-1.740;2022-07-06T12:12:10;0.60;;;0.20;;
51451;SDS011;37521;52.020;-1.740;2022-07-06T12:14:41;0.57;;;0.30;;
51451;SDS011;37521;52.020;-1.740;2022-07-06T12:17:10;0.25;;;0.25;;
51451;SDS011;37521;52.020;-1.740;2022-07-06T12:19:40;0.10;;;0.10;;
51451;SDS011;37521;52.020;-1.740;2022-07-06T12:22:10;0.20;;;0.10;;
51451;SDS011;37521;52.020;-1.740;2022-07-06T12:24:41;0.05;;;0.03;;
51451;SDS011;37521;52.020;-1.740;2022-07-06T12:29:42;0.00;;;0.00;;
51451;SDS011;37521;52.020;-1.740;2022-07-06T12:32:14;0.10;;;0.10;;
51451;SDS011;37521;52.020;-1.740;2022-07-06T12:34:43;0.43;;;0.13;;
51451;SDS011;37521;52.020;-1.740;2022-07-06T12:37:11;0.10;;;0.10;;
51451;SDS011;37521;52.020;-1.740;2022-07-06T12:39:40;0.20;;;0.20;;
51451;SDS011;37521;52.020;-1.740;2022-07-06T12:42:10;0.10;;;0.10;;
51451;SDS011;37521;52.020;-1.740;2022-07-06T12:44:46;0.10;;;0.10;;
51451;SDS011;37521;52.020;-1.740;2022-07-06T12:47:17;0.20;;;0.20;;
51451;SDS011;37521;52.020;-1.740;2022-07-06T12:49:47;0.22;;;0.10;;
51451;SDS011;37521;52.020;-1.740;2022-07-06T12:52:16;0.17;;;0.10;;
51451;SDS011;37521;52.020;-1.740;2022-07-06T12:54:45;0.20;;;0.10;;
51451;SDS011;37521;52.020;-1.740;2022-07-06T12:57:15;0.13;;;0.13;;
51451;SDS011;37521;52.020;-1.740;2022-07-06T12:59:45;0.20;;;0.20;;
51451;SDS011;37521;52.020;-1.740;2022-07-06T13:02:17;0.10;;;0.10;;
51451;SDS011;37521;52.020;-1.740;2022-07-06T13:05:08;0.00;;;0.00;;
51451;SDS011;37521;52.020;-1.740;2022-07-06T13:07:38;0.10;;;0.10;;
51451;SDS011;37521;52.020;-1.740;2022-07-06T13:10:12;0.10;;;0.10;;
51451;SDS011;37521;52.020;-1.740;2022-07-06T13:12:41;0.20;;;0.20;;
51451;SDS011;37521;52.020;-1.740;2022-07-06T13:15:12;0.22;;;0.10;;
51451;SDS011;37521;52.020;-1.740;2022-07-06T13:17:41;0.13;;;0.13;;
51451;SDS011;37521;52.020;-1.740;2022-07-06T13:20:11;0.13;;;0.13;;
51451;SDS011;37521;52.020;-1.740;2022-07-06T13:22:40;0.47;;;0.20;;
51451;SDS011;37521;52.020;-1.740;2022-07-06T13:25:08;2.40;;;0.10;;
51451;SDS011;37521;52.020;-1.740;2022-07-06T13:27:37;0.17;;;0.15;;
51451;SDS011;37521;52.020;-1.740;2022-07-06T13:30:06;0.85;;;0.30;;
51451;SDS011;37521;52.020;-1.740;2022-07-06T13:32:36;0.20;;;0.20;;
51451;SDS011;37521;52.020;-1.740;2022-07-06T13:35:06;0.15;;;0.15;;
51451;SDS011;37521;52.020;-1.740;2022-07-06T13:37:36;0.20;;;0.20;;
51451;SDS011;37521;52.020;-1.740;2022-07-06T13:40:05;1.30;;;0.22;;
51451;SDS011;37521;52.020;-1.740;2022-07-06T13:42:33;2.30;;;0.38;;
51451;SDS011;37521;52.020;-1.740;2022-07-06T13:45:02;0.10;;;0.10;;
51451;SDS011;37521;52.020;-1.740;2022-07-06T13:47:31;0.20;;;0.10;;
51451;SDS011;37521;52.020;-1.740;2022-07-06T13:50:00;0.38;;;0.38;;
51451;SDS011;37521;52.020;-1.740;2022-07-06T13:52:29;0.30;;;0.30;;
51451;SDS011;37521;52.020;-1.740;2022-07-06T13:54:57;0.50;;;0.50;;
51451;SDS011;37521;52.020;-1.740;2022-07-06T13:57:28;0.95;;;0.25;;
51451;SDS011;37521;52.020;-1.740;2022-07-06T13:59:56;0.35;;;0.35;;
51451;SDS011;37521;52.020;-1.740;2022-07-06T14:02:25;0.30;;;0.30;;
51451;SDS011;37521;52.020;-1.740;2022-07-06T14:04:54;0.40;;;0.40;;
51451;SDS011;37521;52.020;-1.740;2022-07-06T14:07:23;0.73;;;0.40;;
51451;SDS011;37521;52.020;-1.740;2022-07-06T14:09:52;1.75;;;0.32;;
51451;SDS011;37521;52.020;-1.740;2022-07-06T14:12:20;1.17;;;0.40;;
51451;SDS011;37521;52.020;-1.740;2022-07-06T14:14:50;0.40;;;0.20;;
51451;SDS011;37521;52.020;-1.740;2022-07-06T14:17:18;0.20;;;0.20;;
51451;SDS011;37521;52.020;-1.740;2022-07-06T14:19:47;0.75;;;0.45;;
51451;SDS011;37521;52.020;-1.740;2022-07-06T14:22:16;0.43;;;0.43;;
51451;SDS011;37521;52.020;-1.740;2022-07-06T14:24:45;0.30;;;0.30;;
51451;SDS011;37521;52.020;-1.740;2022-07-06T14:27:13;0.43;;;0.35;;
51451;SDS011;37521;52.020;-1.740;2022-07-06T14:29:42;0.40;;;0.30;;
51451;SDS011;37521;52.020;-1.740;2022-07-06T14:32:10;0.40;;;0.40;;
51451;SDS011;37521;52.020;-1.740;2022-07-06T14:34:39;0.30;;;0.30;;
51451;SDS011;37521;52.020;-1.740;2022-07-06T14:37:07;0.47;;;0.47;;
51451;SDS011;37521;52.020;-1.740;2022-07-06T14:39:36;0.40;;;0.40;;
51451;SDS011;37521;52.020;-1.740;2022-07-06T14:42:05;0.65;;;0.50;;
51451;SDS011;37521;52.020;-1.740;2022-07-06T14:44:34;0.55;;;0.55;;
51451;SDS011;37521;52.020;-1.740;2022-07-06T14:47:02;0.85;;;0.70;;
51451;SDS011;37521;52.020;-1.740;2022-07-06T14:49:31;0.50;;;0.50;;
51451;SDS011;37521;52.020;-1.740;2022-07-06T14:51:59;2.28;;;0.30;;
51451;SDS011;37521;52.020;-1.740;2022-07-06T14:54:27;0.77;;;0.30;;
51451;SDS011;37521;52.020;-1.740;2022-07-06T14:56:56;2.78;;;0.47;;
51451;SDS011;37521;52.020;-1.740;2022-07-06T14:59:25;0.75;;;0.50;;
51451;SDS011;37521;52.020;-1.740;2022-07-06T15:01:54;0.52;;;0.40;;
51451;SDS011;37521;52.020;-1.740;2022-07-06T15:04:22;0.80;;;0.40;;
51451;SDS011;37521;52.020;-1.740;2022-07-06T15:06:51;0.43;;;0.40;;